This is the latest recevied weather packets stored in our database for station/object DB0PDF-L4. If no packets are shown the sender has not sent any weather packets the latest 10 day(s).
| Time | Temp. | Humidity | Pressure | Rain* | Wind** | Luminosity | Snow |
|---|---|---|---|---|---|---|---|
| 1777512960 | 11.11° C | 38% | 1021 hPa | - | - | - | - |
| 1777512059 | 11.67° C | 37% | 1021 hPa | - | - | - | - |
| 1777511157 | 11.67° C | 37% | 1021 hPa | - | - | - | - |
| 1777508454 | 12.22° C | 36% | 1021 hPa | - | - | - | - |
| 1777507553 | 12.22° C | 35% | 1021 hPa | - | - | - | - |
| 1777503048 | 13.33° C | 33% | 1021 hPa | - | - | - | - |
| 1777497641 | 15° C | 29% | 1020 hPa | - | - | - | - |
| 1777495839 | 15.56° C | 27% | 1020 hPa | - | - | - | - |
| 1777490432 | 18.33° C | 22% | 1020 hPa | - | - | - | - |
| 1777487729 | 20.56° C | 20% | 1019 hPa | - | - | - | - |
| 1777486828 | 21.11° C | 18% | 1019 hPa | - | - | - | - |
| 1777485927 | 21.67° C | 18% | 1019 hPa | - | - | - | - |
| 1777482322 | 23.33° C | 16% | 1019 hPa | - | - | - | - |
| 1777480520 | 23.33° C | 16% | 1018 hPa | - | - | - | - |
| 1777479619 | 24.44° C | 15% | 1019 hPa | - | - | - | - |
| 1777468805 | 22.22° C | 17% | 1019 hPa | - | - | - | - |
| 1777466102 | 21.11° C | 18% | 1019 hPa | - | - | - | - |
| 1777465201 | 21.11° C | 18% | 1020 hPa | - | - | - | - |
| 1777464300 | 20° C | 18% | 1020 hPa | - | - | - | - |
| 1777462497 | 20° C | 19% | 1020 hPa | - | - | - | - |
| 1777461596 | 19.44° C | 18% | 1020 hPa | - | - | - | - |
| 1777458893 | 18.89° C | 20% | 1020 hPa | - | - | - | - |
| 1777457992 | 18.33° C | 20% | 1020 hPa | - | - | - | - |
| 1777457091 | 18.33° C | 20% | 1020 hPa | - | - | - | - |
| 1777455289 | 17.78° C | 21% | 1020 hPa | - | - | - | - |
* Rain since midnight (hover to see other rain measurements)
** Current wind speed in m/s (hover to see current wind gust speed)